TABULAR FORECAST OF EN-ROUTE CONDITIONS LOW LEVEL MODEL TA1

DATE: NOVEMBER 27, 2014 HEIGHT IN FEET MSL

VALID FOR DEPARTURE BETWEEN: 15.00UTC AND 21.30UTC

AND ARRIVAL BETWEEN: 15.00UTC AND 21.30UTC

SPECIAL FEATURES OF THE METEOROLOGICAL SITUATION:

ADVECTION OF SUFFICIENT MOISTURE  AT LOW LEVELS

07° N                            4° N                            2° N

UPPER WINDS

(DEGREES TRUE AND KNOTS)

                              10000FT

                              5000FT

                              2000FT

TEMPERATURE

(DEGREES CELSIUS)

 

            

 

           

 

 

 

EAST TO SOUTHEAST LESS THAN 25KTS.

 

                           

                             

 

CLOUDS

                                 

                                      8000                            

  SCT TO BKN CUSC ——                         
                                      2500    

                                                                    XXX

AFTER 1800Z BECMG ISOL TCU/CB   ——   

                                                                    2000                                                                          

VISIBILITY

SIGNIFICANT WEATHER

TEMPO LOCAL SHOWERS AND ISOL TS

HEIGHT OF 0ºC ISOTHERM (ft)

+/- 16000

FORECAST LOWEST QNH (hPa)

1010

SUPPLEMENTARY INFORMATION

Issued at NMC on: 15.00UTC NOVEMBER 27, 2014 BY FORECASTER: J.SAMIJO

 

Note:

1.   Positive and negative values are indicated by the prefix “PS” (plus) and “MS” (minus) respectively.

2.   When a single numerical value of an element is given in a forecast it is to be interpreted as representing

the most probable mean of a range of values which the element may assume during the period of the forecast.

 

ABBREVIATIONS: SKC – 0 oktas, FEW – 1 to 2 oktas, SCT – 3 to 4 oktas, BKN – 5 to 7 oktas, OVC – 8 oktas,

LYR – Layered, LOC – Locally, ISOL – Isolated, OCNL – Occasional, FRQ – Frequent, EMBD – Embedded.

 

 METAR SMJP 271500Z 11011KT 9999 SCT020 30/23 Q1012 NOSIG=

METAR SMZO 271500Z 11009KT 9999 SCT020 30/24 Q1012 NOSIG=

METAR SMNI 271500Z 09007KT 9999 SCT020 29/24 Q1013=

METAR SMST 271500Z 09006KT 9999 BKN020 29/23 Q////=